Time;durP1;ratioP1;P1;durP2;ratioP2;P2;SDS_P1;SDS_P2;PMS_P1;PMS_P2;Temp;Humidity;BMP_temperature;BMP_pressure;BME280_temperature;BME280_humidity;BME280_pressure;Samples;Min_cycle;Max_cycle;Signal;HPM_P1;HPM_P2
2021/10/25 00:00:30;;;;;;;;;;;;;;;0.36;61.13;100954.63;5020292;28;19921;-76
2021/10/25 00:02:58;;;;;;;;;;;;;;;0.31;60.92;100954.41;5019223;28;19921;-76
2021/10/25 00:05:24;;;;;;;;;;;;;;;0.33;61.43;100954.50;5018594;28;19921;-76
2021/10/25 00:07:50;;;;;;;;;;;;;;;0.35;61.52;100951.19;5018628;28;19921;-76
2021/10/25 00:10:16;;;;;;;;;;;;;;;0.38;61.84;100958.16;5017947;28;19971;-76
2021/10/25 00:12:42;;;;;;;;;;;;;;;0.36;62.03;100967.44;5014413;28;19929;-76
2021/10/25 00:15:09;;;;;;;;;;;;;;;0.36;61.88;100968.34;5014761;28;19921;-76
2021/10/25 00:17:35;;;;;;;;;;;;;;;0.35;61.41;100969.13;5015321;28;19921;-77
2021/10/25 00:20:00;;;;;;;;;;;;;;;0.34;61.56;100976.72;5021400;28;19948;-75
2021/10/25 00:22:26;;;;;;;;;;;;;;;0.32;61.42;100974.09;5028218;28;19922;-75
2021/10/25 00:24:52;;;;;;;;;;;;;;;0.32;61.70;100962.97;5014817;28;19925;-76
2021/10/25 00:27:17;;;;;;;;;;;;;;;0.36;61.52;100982.81;5014566;28;19948;-76
2021/10/25 00:29:43;;;;;;;;;;;;;;;0.34;62.14;100986.97;5014970;28;19972;-76
2021/10/25 00:32:09;;;;;;;;;;;;;;;0.34;62.04;100981.84;5015692;28;19956;-76
2021/10/25 00:34:34;;;;;;;;;;;;;;;0.36;62.34;100980.25;5014195;28;20400;-76
2021/10/25 00:37:02;;;;;;;;;;;;;;;0.40;62.23;100983.06;5014907;28;19921;-76
2021/10/25 00:39:29;;;;;;;;;;;;;;;0.41;62.19;100989.03;4997070;28;19928;-75
2021/10/25 00:41:55;;;;;;;;;;;;;;;0.38;61.65;100987.22;5012863;28;19921;-75
2021/10/25 00:44:22;;;;;;;;;;;;;;;0.37;62.03;100987.13;5014284;28;19921;-75
2021/10/25 00:46:48;;;;;;;;;;;;;;;0.36;62.38;100998.16;5015400;28;20027;-77
2021/10/25 00:49:13;;;;;;;;;;;;;;;0.36;61.58;100998.16;5014141;28;20060;-74
2021/10/25 00:51:39;;;;;;;;;;;;;;;0.34;61.67;101004.88;5014546;28;19929;-75
2021/10/25 00:54:04;;;;;;;;;;;;;;;0.30;61.65;101006.41;5014217;28;19928;-76
2021/10/25 00:56:31;;;;;;;;;;;;;;;0.29;61.65;101008.13;5015234;28;20001;-76
2021/10/25 00:58:57;;;;;;;;;;;;;;;0.31;62.10;101009.88;4980824;28;19928;-73
2021/10/25 01:01:22;;;;;;;;;;;;;;;0.31;61.93;101015.00;5013543;28;19921;-76
2021/10/25 01:03:48;;;;;;;;;;;;;;;0.28;62.04;101016.59;4980424;28;20396;-77
2021/10/25 01:06:15;;;;;;;;;;;;;;;0.29;62.11;101008.13;5012528;28;19928;-78
2021/10/25 01:08:43;;;;;;;;;;;;;;;0.25;62.19;101007.84;4996685;28;19928;-76
2021/10/25 01:11:08;;;;;;;;;;;;;;;0.20;62.20;101009.31;5012198;28;20067;-77
2021/10/25 01:13:34;;;;;;;;;;;;;;;0.19;62.71;101017.78;5014399;28;20023;-75
2021/10/25 01:16:02;;;;;;;;;;;;;;;0.19;62.78;101013.53;5011740;28;20068;-75
2021/10/25 01:18:27;;;;;;;;;;;;;;;0.20;62.92;101012.75;5012748;28;19925;-76
2021/10/25 01:20:53;;;;;;;;;;;;;;;0.21;62.51;101022.19;5012735;28;19921;-76
2021/10/25 01:23:23;;;;;;;;;;;;;;;0.16;62.02;101023.63;4996469;28;19921;-74
2021/10/25 01:25:54;;;;;;;;;;;;;;;0.15;62.47;101016.72;4998279;28;19929;-77
2021/10/25 01:28:20;;;;;;;;;;;;;;;0.13;62.86;101024.34;5013318;28;20104;-77
2021/10/25 01:30:47;;;;;;;;;;;;;;;0.11;62.84;101025.94;5012386;28;20393;-77
2021/10/25 01:33:15;;;;;;;;;;;;;;;0.11;63.09;101038.75;5013158;28;19968;-76
2021/10/25 01:35:41;;;;;;;;;;;;;;;0.09;63.11;101027.53;4996471;28;19944;-77
2021/10/25 01:38:06;;;;;;;;;;;;;;;0.08;62.69;101036.00;4996501;28;19921;-76
2021/10/25 01:40:33;;;;;;;;;;;;;;;0.12;63.44;101040.50;4995676;28;19975;-76
2021/10/25 01:43:01;;;;;;;;;;;;;;;0.09;63.18;101049.72;4980276;28;19921;-76
2021/10/25 01:45:26;;;;;;;;;;;;;;;0.11;63.43;101050.69;5014304;28;20408;-77
2021/10/25 01:47:53;;;;;;;;;;;;;;;0.10;62.83;101048.91;5012073;28;19921;-76
2021/10/25 01:50:21;;;;;;;;;;;;;;;0.11;63.22;101045.56;5011684;28;19926;-75
2021/10/25 01:52:47;;;;;;;;;;;;;;;0.13;62.85;101054.16;5011380;28;19921;-75
2021/10/25 01:55:13;;;;;;;;;;;;;;;0.08;63.17;101053.94;5012017;28;19976;-76
2021/10/25 01:57:38;;;;;;;;;;;;;;;0.07;63.28;101058.97;5011914;28;19925;-76
2021/10/25 02:00:05;;;;;;;;;;;;;;;0.01;63.07;101059.50;5013697;28;19922;-76
2021/10/25 02:02:40;;;;;;;;;;;;;;;-0.03;63.20;101062.72;5030126;28;20376;-76
2021/10/25 02:05:11;;;;;;;;;;;;;;;-0.03;63.54;101063.59;5016134;28;19921;-76
2021/10/25 02:07:37;;;;;;;;;;;;;;;-0.01;62.90;101067.13;5015395;28;20393;-76
2021/10/25 02:10:04;;;;;;;;;;;;;;;-0.03;63.15;101068.72;4997674;28;19966;-75
2021/10/25 02:12:30;;;;;;;;;;;;;;;0.01;63.14;101074.88;5012440;28;20282;-76
2021/10/25 02:14:56;;;;;;;;;;;;;;;0.00;63.38;101070.56;4995644;28;19928;-76
2021/10/25 02:17:23;;;;;;;;;;;;;;;0.01;63.61;101074.88;5012062;28;19928;-76
2021/10/25 02:19:57;;;;;;;;;;;;;;;-0.05;63.38;101077.97;5012355;28;19924;-78
2021/10/25 02:22:25;;;;;;;;;;;;;;;-0.04;63.50;101084.00;5011534;28;19921;-77
2021/10/25 02:24:51;;;;;;;;;;;;;;;-0.08;63.67;101085.47;4995799;28;19926;-77
2021/10/25 02:27:19;;;;;;;;;;;;;;;-0.08;63.47;101080.38;5011485;28;19928;-77
2021/10/25 02:29:45;;;;;;;;;;;;;;;-0.08;63.87;101090.59;5012206;28;19926;-77
2021/10/25 02:32:18;;;;;;;;;;;;;;;-0.10;63.78;101092.19;5010950;28;19926;-76
2021/10/25 02:34:46;;;;;;;;;;;;;;;-0.08;62.97;101095.72;5011102;28;19926;-79
2021/10/25 02:37:13;;;;;;;;;;;;;;;-0.12;63.61;101100.59;5011111;28;19922;-76
2021/10/25 02:39:39;;;;;;;;;;;;;;;-0.10;64.16;101101.56;5011009;28;19922;-76
2021/10/25 02:42:07;;;;;;;;;;;;;;;-0.12;63.66;101108.28;5013182;28;19944;-75
2021/10/25 02:44:33;;;;;;;;;;;;;;;-0.12;64.22;101109.16;4979469;28;19922;-76
2021/10/25 02:46:58;;;;;;;;;;;;;;;-0.14;63.59;101109.84;5011738;28;19922;-76
2021/10/25 02:49:25;;;;;;;;;;;;;;;-0.14;63.98;101105.63;5011137;28;19925;-76
2021/10/25 02:51:51;;;;;;;;;;;;;;;-0.14;64.19;101107.31;4995127;28;20310;-76
2021/10/25 02:54:16;;;;;;;;;;;;;;;-0.18;63.73;101104.56;5011131;28;19990;-76
2021/10/25 02:56:49;;;;;;;;;;;;;;;-0.23;63.57;101108.56;5011195;28;19930;-76
2021/10/25 02:59:17;;;;;;;;;;;;;;;-0.22;64.34;101105.19;5011243;28;19928;-75
2021/10/25 03:01:43;;;;;;;;;;;;;;;-0.22;64.07;101114.56;4978796;28;20027;-76
2021/10/25 03:04:11;;;;;;;;;;;;;;;-0.25;64.48;101112.72;5011359;28;19921;-75
2021/10/25 03:06:37;;;;;;;;;;;;;;;-0.23;64.08;101117.91;5013631;28;19929;-75
2021/10/25 03:09:03;;;;;;;;;;;;;;;-0.25;64.47;101114.38;4999149;28;19932;-78
2021/10/25 03:11:29;;;;;;;;;;;;;;;-0.24;64.20;101116.13;5014827;28;20356;-76
2021/10/25 03:13:55;;;;;;;;;;;;;;;-0.25;64.44;101122.06;5014522;28;19928;-75
2021/10/25 03:16:25;;;;;;;;;;;;;;;-0.26;63.74;101123.75;5014214;28;19925;-76
2021/10/25 03:18:51;;;;;;;;;;;;;;;-0.27;64.39;101127.09;5014886;28;19922;-77
2021/10/25 03:21:17;;;;;;;;;;;;;;;-0.32;64.54;101128.50;5015222;28;19922;-76
2021/10/25 03:23:43;;;;;;;;;;;;;;;-0.30;64.81;101124.38;5016143;28;19922;-77
2021/10/25 03:26:08;;;;;;;;;;;;;;;-0.31;64.82;101123.47;4999385;28;19925;-77
2021/10/25 03:28:34;;;;;;;;;;;;;;;-0.28;64.16;101132.09;5018072;28;20312;-77
2021/10/25 03:31:00;;;;;;;;;;;;;;;-0.24;64.23;101128.94;5014917;28;19925;-78
2021/10/25 03:33:27;;;;;;;;;;;;;;;-0.24;64.19;101128.94;5016636;28;19928;-76
2021/10/25 03:36:07;;;;;;;;;;;;;;;-0.25;63.89;101129.72;5015032;28;19983;-75
2021/10/25 03:38:38;;;;;;;;;;;;;;;-0.25;65.03;101133.19;4998529;28;19922;-75
2021/10/25 03:41:06;;;;;;;;;;;;;;;-0.24;65.04;101132.41;4998607;28;19921;-80
2021/10/25 03:43:35;;;;;;;;;;;;;;;-0.26;63.94;101135.63;5024686;28;19996;-78
2021/10/25 03:48:32;;;;;;;;;;;;;;;-0.26;64.48;101145.88;5018947;28;19921;-75
2021/10/25 03:50:57;;;;;;;;;;;;;;;-0.31;64.12;101156.72;5019769;28;20329;-76
2021/10/25 03:56:08;;;;;;;;;;;;;;;-0.34;64.19;101155.69;5018750;28;20369;-75
2021/10/25 04:12:51;;;;;;;;;;;;;;;-0.36;64.31;101159.81;5036705;28;19913;-77
2021/10/25 04:29:35;;;;;;;;;;;;;;;-0.05;65.06;101184.59;5014195;28;19926;-79
2021/10/25 04:32:06;;;;;;;;;;;;;;;0.23;64.41;101181.91;5013864;28;20024;-79
2021/10/25 04:34:43;;;;;;;;;;;;;;;0.25;64.15;101182.88;5001249;28;19953;-77
2021/10/25 04:37:44;;;;;;;;;;;;;;;0.28;64.69;101182.13;5016334;28;19929;-79
2021/10/25 04:40:13;;;;;;;;;;;;;;;0.38;65.14;101183.53;4993913;28;19928;-77
2021/10/25 04:42:39;;;;;;;;;;;;;;;0.77;64.56;101193.28;4982250;28;19921;-76
2021/10/25 04:45:13;;;;;;;;;;;;;;;1.19;64.66;101188.63;5013631;28;19921;-78
2021/10/25 04:47:46;;;;;;;;;;;;;;;1.97;64.42;101185.66;4983414;28;19956;-79
2021/10/25 04:50:38;;;;;;;;;;;;;;;3.25;64.16;101182.00;5015836;28;20749;-78
2021/10/25 04:53:15;;;;;;;;;;;;;;;4.31;63.58;101184.56;5014104;28;20320;-77
2021/10/25 04:55:40;;;;;;;;;;;;;;;5.25;62.28;101181.97;5014394;28;19936;-79
2021/10/25 04:58:06;;;;;;;;;;;;;;;6.08;61.57;101186.47;5016225;28;19928;-79
2021/10/25 05:00:32;;;;;;;;;;;;;;;6.87;60.49;101186.25;5021890;28;19921;-76
2021/10/25 05:02:59;;;;;;;;;;;;;;;7.64;58.85;101183.94;5028068;28;19937;-77
2021/10/25 05:05:25;;;;;;;;;;;;;;;8.37;57.95;101176.16;5018596;28;19932;-77
2021/10/25 05:07:51;;;;;;;;;;;;;;;9.19;57.60;101179.59;5015387;28;19971;-79
2021/10/25 05:10:16;;;;;;;;;;;;;;;10.10;56.00;101177.66;5014287;28;19921;-77
2021/10/25 05:12:42;;;;;;;;;;;;;;;10.84;55.30;101178.69;4998661;28;19929;-77
2021/10/25 05:15:08;;;;;;;;;;;;;;;11.59;54.19;101174.22;5014116;28;19976;-77
2021/10/25 05:17:35;;;;;;;;;;;;;;;12.38;53.27;101173.97;5013744;28;19921;-79
2021/10/25 05:20:04;;;;;;;;;;;;;;;13.10;51.85;101182.09;5013120;28;20014;-77
2021/10/25 05:22:35;;;;;;;;;;;;;;;13.84;50.62;101176.09;5012775;28;19931;-76
2021/10/25 05:25:00;;;;;;;;;;;;;;;14.46;49.67;101175.97;5013843;28;20012;-76
2021/10/25 05:27:26;;;;;;;;;;;;;;;15.08;49.06;101174.03;5016599;28;19932;-76
2021/10/25 05:29:53;;;;;;;;;;;;;;;15.62;47.85;101173.66;5021318;28;19921;-78
2021/10/25 05:32:19;;;;;;;;;;;;;;;16.11;47.18;101172.38;5015429;28;19925;-80
2021/10/25 05:34:45;;;;;;;;;;;;;;;16.68;46.14;101173.47;5014143;28;19967;-78
2021/10/25 05:37:11;;;;;;;;;;;;;;;17.19;45.91;101178.09;5012867;28;19922;-80
2021/10/25 05:39:37;;;;;;;;;;;;;;;17.77;45.20;101186.81;5012431;28;19983;-78
2021/10/25 05:42:06;;;;;;;;;;;;;;;18.38;44.13;101185.78;5012727;28;19944;-77
2021/10/25 05:44:33;;;;;;;;;;;;;;;19.03;43.28;101186.25;4995878;28;19921;-77
2021/10/25 05:47:00;;;;;;;;;;;;;;;19.52;42.15;101187.75;5014143;28;19921;-77
2021/10/25 05:49:25;;;;;;;;;;;;;;;19.87;42.03;101187.75;5011029;28;19921;-77
2021/10/25 05:51:51;;;;;;;;;;;;;;;20.20;41.27;101190.47;5012298;28;19933;-80
2021/10/25 05:54:17;;;;;;;;;;;;;;;20.82;40.40;101190.53;5011897;28;19922;-78
2021/10/25 05:56:43;;;;;;;;;;;;;;;21.36;39.29;101195.03;5012039;28;20000;-75
2021/10/25 05:59:09;;;;;;;;;;;;;;;21.96;38.65;101186.88;5011597;28;19928;-76
2021/10/25 06:01:41;;;;;;;;;;;;;;;22.63;37.69;101188.97;4979558;28;19921;-79
2021/10/25 06:04:24;;;;;;;;;;;;;;;23.37;36.46;101174.69;5011953;28;20020;-77
2021/10/25 06:07:10;;;;;;;;;;;;;;;24.03;35.63;101171.91;5012970;28;19921;-78
2021/10/25 06:09:36;;;;;;;;;;;;;;;24.53;35.02;101169.72;5011726;28;19929;-77
2021/10/25 06:12:08;;;;;;;;;;;;;;;24.87;34.48;101169.97;5011951;28;20389;-78
2021/10/25 06:14:40;;;;;;;;;;;;;;;25.19;33.91;101173.75;5012191;28;20416;-78
2021/10/25 06:20:13;;;;;;;;;;;;;;;25.35;33.14;101176.53;4965699;28;20448;-76
2021/10/25 06:22:39;;;;;;;;;;;;;;;24.99;33.24;101180.00;5013942;28;20125;-77
2021/10/25 06:25:06;;;;;;;;;;;;;;;24.56;33.73;101174.00;5014173;28;19928;-79
2021/10/25 06:27:34;;;;;;;;;;;;;;;24.33;33.98;101171.50;5010999;28;19925;-76
2021/10/25 06:30:00;;;;;;;;;;;;;;;24.02;33.64;101186.13;5011952;28;20020;-79
2021/10/25 06:32:25;;;;;;;;;;;;;;;24.27;33.40;101184.19;5012705;28;19929;-79
2021/10/25 06:34:52;;;;;;;;;;;;;;;23.99;32.64;101196.88;5011681;28;20381;-76
2021/10/25 06:38:08;;;;;;;;;;;;;;;22.56;33.65;101194.53;5011473;28;19972;-76
2021/10/25 06:40:36;;;;;;;;;;;;;;;21.66;33.77;101197.63;5011518;28;19921;-77
2021/10/25 06:43:02;;;;;;;;;;;;;;;20.70;34.18;101200.50;5011421;28;20312;-78
2021/10/25 06:45:28;;;;;;;;;;;;;;;19.68;33.87;101204.06;5014376;28;19922;-78
2021/10/25 06:47:54;;;;;;;;;;;;;;;18.11;35.07;101218.78;4998431;28;19948;-76
2021/10/25 06:50:22;;;;;;;;;;;;;;;17.05;35.09;101215.09;5012732;28;19984;-76
2021/10/25 06:52:50;;;;;;;;;;;;;;;16.17;36.09;101226.56;4996611;28;19969;-76
2021/10/25 06:55:18;;;;;;;;;;;;;;;15.60;36.05;101218.25;5010486;28;20455;-76
2021/10/25 06:57:50;;;;;;;;;;;;;;;15.17;36.31;101223.75;4979138;28;19945;-77
2021/10/25 07:00:24;;;;;;;;;;;;;;;14.70;36.13;101221.34;5010780;28;20020;-76
2021/10/25 07:02:50;;;;;;;;;;;;;;;14.25;35.79;101233.63;4994757;28;20016;-79
2021/10/25 07:05:17;;;;;;;;;;;;;;;14.05;36.21;101239.75;4994991;28;20298;-77
2021/10/25 07:07:45;;;;;;;;;;;;;;;14.14;36.41;101239.75;5010578;28;19921;-77
2021/10/25 07:10:10;;;;;;;;;;;;;;;14.54;35.67;101248.44;4994490;28;19925;-78
2021/10/25 07:12:45;;;;;;;;;;;;;;;14.86;34.71;101243.13;4995704;28;19936;-79
2021/10/25 07:15:11;;;;;;;;;;;;;;;14.83;34.64;101245.75;4996106;28;19921;-78
2021/10/25 08:04:55;;;;;;;;;;;;;;;9.17;38.60;101285.16;5015084;28;20387;-77
2021/10/25 08:10:18;;;;;;;;;;;;;;;9.48;38.89;101285.78;5015040;28;19921;-76
2021/10/25 08:12:54;;;;;;;;;;;;;;;9.34;38.46;101293.31;4998948;28;20356;-76
2021/10/25 08:15:27;;;;;;;;;;;;;;;8.75;39.08;101297.25;4980963;28;19944;-77
2021/10/25 08:17:57;;;;;;;;;;;;;;;8.53;39.26;101285.50;5014290;28;19925;-76
2021/10/25 08:20:23;;;;;;;;;;;;;;;8.36;39.83;101278.16;5015856;28;19975;-78
2021/10/25 08:22:48;;;;;;;;;;;;;;;8.59;39.94;101288.25;5016759;28;20389;-76
2021/10/25 08:25:15;;;;;;;;;;;;;;;9.12;40.19;101289.41;5018191;28;19971;-77
2021/10/25 08:28:06;;;;;;;;;;;;;;;9.76;39.48;101287.16;5024896;28;19925;-76
2021/10/25 08:30:33;;;;;;;;;;;;;;;10.69;38.72;101290.44;5019914;28;19945;-79
2021/10/25 08:36:14;;;;;;;;;;;;;;;13.09;36.41;101229.13;5014301;28;19925;-77
2021/10/25 08:41:42;;;;;;;;;;;;;;;11.88;36.62;101271.00;5013715;28;19929;-79
2021/10/25 08:44:08;;;;;;;;;;;;;;;13.00;36.96;101273.50;5013715;28;20389;-78
2021/10/25 08:46:38;;;;;;;;;;;;;;;14.57;36.23;101253.66;5013279;28;20389;-75
2021/10/25 08:49:04;;;;;;;;;;;;;;;16.28;34.10;101248.34;5012964;28;19933;-75
2021/10/25 08:51:29;;;;;;;;;;;;;;;17.85;33.16;101243.75;5012822;28;20035;-77
2021/10/25 08:53:55;;;;;;;;;;;;;;;19.33;31.23;101226.00;5013311;28;19925;-78
2021/10/25 08:56:21;;;;;;;;;;;;;;;19.94;31.03;101228.13;5014637;28;19922;-78
2021/10/25 08:59:06;;;;;;;;;;;;;;;20.26;30.48;101227.31;5013937;28;19947;-76
2021/10/25 09:01:33;;;;;;;;;;;;;;;21.15;29.75;101222.16;5031887;28;19916;-78
2021/10/25 09:04:11;;;;;;;;;;;;;;;21.92;28.43;101218.84;5018437;28;19993;-77
2021/10/25 09:07:08;;;;;;;;;;;;;;;22.31;29.09;101217.53;5013056;28;19921;-78
2021/10/25 09:09:34;;;;;;;;;;;;;;;22.75;28.02;101223.03;5000276;28;19921;-77
2021/10/25 09:12:09;;;;;;;;;;;;;;;22.89;27.79;101218.97;5012603;28;19951;-77
2021/10/25 09:14:55;;;;;;;;;;;;;;;22.98;27.78;101215.97;5012314;28;19928;-76
2021/10/25 09:17:21;;;;;;;;;;;;;;;22.78;27.87;101217.59;5014611;28;19928;-77
2021/10/25 09:20:01;;;;;;;;;;;;;;;23.00;27.35;101227.41;5012889;28;20100;-77
2021/10/25 09:22:28;;;;;;;;;;;;;;;23.08;26.32;101212.03;5011586;28;19931;-77
2021/10/25 09:24:55;;;;;;;;;;;;;;;22.99;27.18;101213.25;4980398;28;20019;-79
2021/10/25 09:27:46;;;;;;;;;;;;;;;23.66;26.67;101212.44;5016600;28;19925;-78
2021/10/25 09:30:49;;;;;;;;;;;;;;;24.06;26.08;101211.66;5015708;28;20040;-78
2021/10/25 09:33:21;;;;;;;;;;;;;;;23.11;26.38;101214.56;5019200;28;19936;-77
2021/10/25 09:36:07;;;;;;;;;;;;;;;22.62;25.69;101217.31;5004493;28;19921;-79
2021/10/25 09:39:06;;;;;;;;;;;;;;;22.02;26.49;101220.28;5001807;28;19922;-78
2021/10/25 09:49:54;;;;;;;;;;;;;;;20.03;26.54;101219.97;5012260;28;19984;-75
2021/10/25 09:52:26;;;;;;;;;;;;;;;18.14;28.05;101224.00;4996437;28;19925;-76
2021/10/25 09:54:57;;;;;;;;;;;;;;;16.75;29.57;101232.09;5013172;28;19922;-77
2021/10/25 09:57:27;;;;;;;;;;;;;;;16.31;29.93;101236.94;5013525;28;19948;-77
2021/10/25 10:00:13;;;;;;;;;;;;;;;16.03;29.73;101231.94;5012957;28;19957;-77
2021/10/25 10:02:39;;;;;;;;;;;;;;;15.66;29.64;101233.94;5015908;28;19922;-78
2021/10/25 10:05:10;;;;;;;;;;;;;;;15.17;30.12;101232.50;5001063;28;20304;-76
2021/10/25 10:07:37;;;;;;;;;;;;;;;14.75;30.24;101230.06;5020157;28;19921;-78
2021/10/25 10:10:16;;;;;;;;;;;;;;;14.31;30.65;101246.72;5017263;28;19932;-77
2021/10/25 10:12:51;;;;;;;;;;;;;;;13.82;30.81;101238.00;5005919;28;19936;-78
2021/10/25 10:15:24;;;;;;;;;;;;;;;13.40;31.00;101234.44;5016717;28;20393;-76
2021/10/25 10:17:51;;;;;;;;;;;;;;;13.01;31.35;101229.09;5019941;28;20374;-76
2021/10/25 10:20:26;;;;;;;;;;;;;;;12.72;31.59;101235.06;5004107;28;20296;-78
2021/10/25 10:22:58;;;;;;;;;;;;;;;12.23;31.64;101246.09;5002913;28;19922;-77
2021/10/25 10:25:32;;;;;;;;;;;;;;;11.56;31.83;101249.81;5015942;28;19921;-79
2021/10/25 10:27:59;;;;;;;;;;;;;;;10.80;32.44;101248.94;5014708;28;19932;-77
2021/10/25 10:30:25;;;;;;;;;;;;;;;9.84;32.89;101250.91;5013718;28;19925;-78
2021/10/25 10:33:03;;;;;;;;;;;;;;;9.32;34.20;101250.81;5020637;28;19925;-76
2021/10/25 10:35:42;;;;;;;;;;;;;;;8.93;34.14;101250.06;5019794;28;19921;-77
2021/10/25 10:38:14;;;;;;;;;;;;;;;8.62;34.33;101252.00;5016266;28;19925;-77
2021/10/25 10:41:20;;;;;;;;;;;;;;;8.33;34.87;101252.16;5010708;28;19921;-78
2021/10/25 10:44:05;;;;;;;;;;;;;;;8.19;34.86;101245.78;5015842;28;19957;-79
2021/10/25 10:46:52;;;;;;;;;;;;;;;8.07;35.14;101254.13;5026600;28;20478;-77
2021/10/25 10:49:38;;;;;;;;;;;;;;;8.04;35.47;101247.16;5018170;28;19921;-76
2021/10/25 10:55:10;;;;;;;;;;;;;;;8.22;35.25;101240.66;5022634;28;19956;-75
2021/10/25 11:00:08;;;;;;;;;;;;;;;8.14;35.03;101235.31;5013598;28;19949;-77
2021/10/25 11:02:35;;;;;;;;;;;;;;;8.13;35.32;101230.97;5012725;28;19933;-78
2021/10/25 11:05:07;;;;;;;;;;;;;;;8.15;35.23;101226.69;5013308;28;19957;-76
2021/10/25 11:07:37;;;;;;;;;;;;;;;8.14;35.00;101219.75;5014965;28;19964;-78
2021/10/25 11:10:02;;;;;;;;;;;;;;;7.80;35.17;101221.50;4996687;28;19948;-78
2021/10/25 11:12:29;;;;;;;;;;;;;;;7.51;35.38;101225.09;4979867;28;19971;-79
2021/10/25 11:14:56;;;;;;;;;;;;;;;7.33;36.04;101219.44;5011488;28;19929;-77
2021/10/25 11:17:26;;;;;;;;;;;;;;;7.26;36.21;101217.50;5010912;28;19921;-77
2021/10/25 11:19:53;;;;;;;;;;;;;;;7.33;35.76;101215.09;5011764;28;19929;-77
2021/10/25 11:22:32;;;;;;;;;;;;;;;7.24;35.92;101214.88;5012605;28;19936;-78
2021/10/25 11:25:02;;;;;;;;;;;;;;;7.03;36.04;101222.91;5010646;28;20008;-77
2021/10/25 11:27:35;;;;;;;;;;;;;;;6.91;36.33;101219.16;5013374;28;19989;-80
2021/10/25 11:30:06;;;;;;;;;;;;;;;6.74;35.78;101221.25;4998803;28;19921;-78
2021/10/25 11:32:32;;;;;;;;;;;;;;;6.54;36.60;101218.03;5016406;28;19925;-80
2021/10/25 11:34:58;;;;;;;;;;;;;;;6.40;36.84;101219.34;5016454;28;19921;-77
2021/10/25 11:37:26;;;;;;;;;;;;;;;6.32;36.88;101219.09;4982399;28;19921;-77
2021/10/25 11:42:29;;;;;;;;;;;;;;;6.57;37.09;101205.22;5015844;28;20064;-78
2021/10/25 11:44:57;;;;;;;;;;;;;;;6.71;36.79;101202.16;5014246;28;19995;-78
2021/10/25 11:47:24;;;;;;;;;;;;;;;6.90;36.75;101207.03;5014341;28;19932;-79
2021/10/25 11:49:50;;;;;;;;;;;;;;;7.11;36.66;101202.41;5014069;28;19921;-77
2021/10/25 11:52:16;;;;;;;;;;;;;;;7.12;36.64;101207.66;4998108;28;19960;-76
2021/10/25 11:55:02;;;;;;;;;;;;;;;7.02;36.38;101210.78;5016963;28;19922;-81
2021/10/25 11:57:33;;;;;;;;;;;;;;;6.74;37.11;101203.13;4999896;28;19947;-79
2021/10/25 11:59:58;;;;;;;;;;;;;;;6.51;36.80;101196.41;5014482;28;19996;-78
2021/10/25 12:02:26;;;;;;;;;;;;;;;6.25;37.46;101192.19;5014515;28;19971;-78
2021/10/25 12:04:52;;;;;;;;;;;;;;;6.10;37.72;101184.81;4998257;28;19928;-80
2021/10/25 12:07:18;;;;;;;;;;;;;;;5.91;37.74;101183.31;5013928;28;20349;-77
2021/10/25 12:09:44;;;;;;;;;;;;;;;5.79;37.95;101186.38;5016904;28;20021;-76
2021/10/25 12:12:16;;;;;;;;;;;;;;;5.71;38.55;101180.97;5016914;28;19925;-80
2021/10/25 12:14:44;;;;;;;;;;;;;;;5.70;38.62;101180.94;5014366;28;19967;-78
2021/10/25 12:17:14;;;;;;;;;;;;;;;5.68;38.36;101182.56;4998548;28;20285;-79
2021/10/25 12:19:41;;;;;;;;;;;;;;;5.61;39.13;101189.25;5016474;28;19921;-80
2021/10/25 12:22:09;;;;;;;;;;;;;;;5.52;38.62;101183.75;5014375;28;19921;-79
2021/10/25 12:24:36;;;;;;;;;;;;;;;5.33;38.91;101183.13;4998618;28;20616;-77
2021/10/25 12:27:02;;;;;;;;;;;;;;;5.18;38.93;101177.44;5014797;28;19972;-77
2021/10/25 12:29:28;;;;;;;;;;;;;;;5.16;39.79;101190.28;5015625;28;19929;-77
2021/10/25 12:32:07;;;;;;;;;;;;;;;5.07;39.71;101184.81;5019313;28;19969;-75
2021/10/25 12:34:33;;;;;;;;;;;;;;;4.98;39.88;101181.06;5020670;28;20028;-78
2021/10/25 12:36:58;;;;;;;;;;;;;;;4.94;39.51;101173.16;5017768;28;19963;-76
2021/10/25 12:39:24;;;;;;;;;;;;;;;4.94;40.15;101178.31;5007841;28;20477;-80
2021/10/25 12:41:59;;;;;;;;;;;;;;;4.91;40.17;101181.66;5022746;28;20001;-79
2021/10/25 12:44:26;;;;;;;;;;;;;;;4.80;40.35;101181.25;5015250;28;19921;-79
2021/10/25 12:47:02;;;;;;;;;;;;;;;4.75;39.82;101176.75;5015202;28;20456;-78
2021/10/25 12:49:28;;;;;;;;;;;;;;;4.65;40.87;101176.41;5014594;28;20447;-79
2021/10/25 12:52:01;;;;;;;;;;;;;;;4.57;40.73;101162.38;5014945;28;20008;-77
2021/10/25 12:54:31;;;;;;;;;;;;;;;4.52;40.43;101175.06;5015476;28;19988;-79
2021/10/25 12:56:58;;;;;;;;;;;;;;;4.50;41.38;101174.16;5014078;28;19944;-78
2021/10/25 12:59:27;;;;;;;;;;;;;;;4.58;40.68;101173.53;5015492;28;19921;-78
2021/10/25 13:01:54;;;;;;;;;;;;;;;4.71;41.49;101168.03;4997762;28;19921;-76
2021/10/25 13:04:20;;;;;;;;;;;;;;;4.70;41.20;101163.72;5013888;28;20027;-76
2021/10/25 13:06:46;;;;;;;;;;;;;;;4.74;41.47;101150.13;5013358;28;19921;-79
2021/10/25 13:09:12;;;;;;;;;;;;;;;4.84;41.16;101156.47;5014226;28;19928;-79
2021/10/25 13:11:38;;;;;;;;;;;;;;;4.87;41.11;101155.69;5013467;28;19921;-76
2021/10/25 13:14:05;;;;;;;;;;;;;;;4.89;41.45;101151.47;5014679;28;19964;-80
2021/10/25 13:16:42;;;;;;;;;;;;;;;4.89;41.04;101154.06;5015000;28;19922;-77
2021/10/25 13:19:08;;;;;;;;;;;;;;;4.86;41.29;101148.78;5013715;28;20311;-76
2021/10/25 13:21:34;;;;;;;;;;;;;;;4.85;41.86;101147.03;5013684;28;19921;-78
2021/10/25 13:24:00;;;;;;;;;;;;;;;4.86;41.98;101148.78;5013868;28;19995;-78
2021/10/25 13:26:30;;;;;;;;;;;;;;;4.78;41.55;101138.19;5013466;28;19929;-78
2021/10/25 13:28:57;;;;;;;;;;;;;;;4.70;42.49;101142.19;5013684;28;20401;-75
2021/10/25 13:31:23;;;;;;;;;;;;;;;4.52;42.03;101133.81;5014756;28;19921;-77
2021/10/25 13:33:49;;;;;;;;;;;;;;;4.46;42.44;101136.19;5016592;28;19932;-76
2021/10/25 13:36:15;;;;;;;;;;;;;;;4.40;42.64;101130.78;5015043;28;19921;-76
2021/10/25 13:38:46;;;;;;;;;;;;;;;4.31;43.22;101135.59;4983305;28;19928;-77
2021/10/25 13:41:12;;;;;;;;;;;;;;;4.22;42.99;101133.53;5015826;28;19928;-78
2021/10/25 13:43:37;;;;;;;;;;;;;;;4.17;43.23;101135.09;5018968;28;19953;-78
2021/10/25 13:46:06;;;;;;;;;;;;;;;4.12;43.43;101134.03;5004956;28;19933;-79
2021/10/25 13:48:37;;;;;;;;;;;;;;;4.05;43.20;101125.19;5019559;28;19929;-78
2021/10/25 13:51:06;;;;;;;;;;;;;;;3.98;43.08;101133.47;5016392;28;19977;-77
2021/10/25 13:53:33;;;;;;;;;;;;;;;3.88;43.48;101138.25;5018893;28;19932;-77
2021/10/25 13:55:59;;;;;;;;;;;;;;;3.82;44.08;101131.97;5017387;28;19976;-75
2021/10/25 13:58:28;;;;;;;;;;;;;;;3.76;43.76;101136.06;4985746;28;20616;-75
2021/10/25 14:01:31;;;;;;;;;;;;;;;3.71;44.22;101141.84;5001773;28;19932;-77
2021/10/25 14:03:55;;;;;;;;;;;;;;;3.42;44.25;101097.81;5021125;28;19925;-74
2021/10/25 14:06:32;;;;;;;;;;;;;;;3.60;44.26;101129.44;5020359;28;19921;-77
2021/10/25 14:09:25;;;;;;;;;;;;;;;3.54;44.55;101118.88;5006541;28;20048;-78
2021/10/25 14:11:54;;;;;;;;;;;;;;;3.49;44.82;101125.53;5006470;28;19929;-77
2021/10/25 14:14:30;;;;;;;;;;;;;;;3.43;44.86;101120.13;4990918;28;19925;-77
2021/10/25 14:16:58;;;;;;;;;;;;;;;3.41;44.67;101125.22;5019424;28;19921;-78
2021/10/25 14:19:33;;;;;;;;;;;;;;;3.37;44.79;101123.31;5037952;28;19922;-78
2021/10/25 14:22:00;;;;;;;;;;;;;;;3.35;44.69;101126.66;5023712;28;19965;-79
2021/10/25 14:24:29;;;;;;;;;;;;;;;3.31;44.97;101126.53;5022777;28;19964;-77
2021/10/25 14:26:58;;;;;;;;;;;;;;;3.28;45.31;101123.81;5023409;28;19921;-76
2021/10/25 14:29:24;;;;;;;;;;;;;;;3.26;44.92;101115.16;5024873;28;19931;-78
2021/10/25 14:31:56;;;;;;;;;;;;;;;3.21;45.41;101119.22;5024603;28;20016;-76
2021/10/25 14:34:22;;;;;;;;;;;;;;;3.16;45.33;101118.19;5024945;28;19933;-77
2021/10/25 14:37:00;;;;;;;;;;;;;;;3.11;45.61;101109.38;4991779;28;19921;-76
2021/10/25 14:39:33;;;;;;;;;;;;;;;3.11;45.76;101114.53;5023605;28;19988;-76
2021/10/25 14:44:34;;;;;;;;;;;;;;;3.11;46.20;101109.38;5024099;28;20074;-79
2021/10/25 14:55:10;;;;;;;;;;;;;;;2.95;46.24;101113.88;5020148;28;19926;-76